Date,TemperatureHighF,TemperatureAvgF,TemperatureLowF,DewpointHighF,DewpointAvgF,DewpointLowF,HumidityHigh,HumidityAvg,HumidityLow,PressureMaxIn,PressureMinIn,WindSpeedMaxMPH,WindSpeedAvgMPH,GustSpeedMaxMPH,PrecipitationSumIn
2013-9-1,91.2,78.9,69.9,77.1,72.9,67.5,95,83,58,29.82,29.73,23,2,23,0.05
2013-9-2,84.8,74.5,66.3,69.3,66.3,61.8,97,78,52,29.93,29.81,14,3,14,0.00
2013-9-3,82.0,69.9,59.7,66.2,61.8,57.8,95,77,49,30.07,29.93,12,1,14,0.00
2013-9-4,84.1,69.7,56.3,65.0,60.1,54.8,96,74,45,30.16,30.07,8,1,10,0.00
2013-9-5,87.0,70.2,57.4,67.3,61.4,55.6,95,77,46,30.20,30.12,10,1,11,0.00
2013-9-6,89.5,74.6,61.1,68.3,64.8,59.3,96,74,44,30.18,30.04,10,1,10,0.00
2013-9-7,90.7,76.5,61.8,71.1,66.5,60.4,97,74,46,30.06,29.92,10,2,11,0.00
2013-9-8,83.4,76.1,70.6,76.0,70.9,66.5,92,84,75,29.98,29.90,10,0,10,0.02
2013-9-9,98.0,82.8,72.3,78.1,73.2,70.4,96,75,42,29.98,29.90,12,1,12,0.00
2013-9-10,96.8,83.1,72.8,77.3,73.8,71.2,96,75,48,30.08,29.97,10,1,10,0.00
2013-9-11,97.3,82.2,70.4,74.6,71.1,65.0,96,73,36,30.13,30.01,8,1,8,0.00
2013-9-12,86.2,76.1,64.7,72.0,66.1,54.4,94,73,46,30.06,29.95,17,2,17,0.00
2013-9-13,76.3,65.0,54.6,57.2,52.0,47.8,92,65,39,30.11,30.01,17,2,17,0.00
2013-9-14,76.3,61.4,47.5,51.6,47.6,42.4,91,64,33,30.17,30.05,10,1,10,0.00
2013-9-15,82.0,66.1,49.5,59.2,52.7,46.1,93,65,36,30.10,30.00,13,2,13,0.00
2013-9-16,74.4,66.2,60.1,63.7,60.5,55.9,94,82,61,30.23,30.06,11,2,14,0.14
2013-9-17,79.5,67.8,56.8,63.8,59.1,54.2,91,75,52,30.23,30.08,13,3,13,0.00
2013-9-18,87.8,74.6,65.0,72.1,67.0,61.0,95,79,52,30.11,29.96,17,2,17,0.04
2013-9-19,90.5,79.1,71.2,74.0,71.3,69.0,94,78,52,30.02,29.88,18,4,18,0.00
2013-9-20,75.3,71.4,63.2,70.8,68.2,59.6,95,90,81,29.92,29.83,16,2,16,0.26
2013-9-21,72.7,61.9,53.1,59.6,52.5,49.3,93,73,45,29.93,29.86,14,4,21,0.00
2013-9-22,75.3,62.0,49.6,55.0,50.6,46.1,94,69,39,30.01,29.93,12,1,12,0.00
2013-9-23,77.7,63.6,51.6,55.8,51.3,48.3,91,67,36,30.05,29.94,16,3,16,0.00
2013-9-24,81.8,66.8,53.7,67.0,59.1,50.3,95,78,49,29.96,29.81,15,2,15,0.00
2013-9-25,84.5,70.9,63.3,67.3,64.1,61.1,97,81,51,29.87,29.79,14,2,14,0.01
2013-9-26,85.3,71.2,61.0,67.2,61.4,57.3,96,74,42,30.02,29.86,12,2,12,0.00
2013-9-27,83.3,68.9,54.7,62.2,56.4,50.2,95,68,36,30.12,30.02,13,1,13,0.00
2013-9-28,84.1,71.4,57.2,64.6,59.2,54.2,92,68,43,30.09,29.98,19,3,24,0.00
2013-9-29,74.9,65.1,57.9,64.1,60.8,56.7,97,87,66,30.04,29.95,10,2,10,0.47
2013-9-30,78.2,67.1,61.7,68.1,63.9,60.3,98,90,66,30.00,29.91,13,1,13,0.01